Time;durP1;ratioP1;P1;durP2;ratioP2;P2;SDS_P1;SDS_P2;PMS_P1;PMS_P2;Temp;Humidity;BMP_temperature;BMP_pressure;BME280_temperature;BME280_humidity;BME280_pressure;Samples;Min_cycle;Max_cycle;Signal;HPM_P1;HPM_P2
2024/01/12 00:01:09;;;;;;;2.47;2.28;;;-2.40;99.90;;;;;;6255103;22;20526;-88
2024/01/12 00:03:40;;;;;;;1.95;1.85;;;-2.30;99.90;;;;;;6229296;23;20387;-89
2024/01/12 00:06:07;;;;;;;3.92;3.63;;;-2.30;99.90;;;;;;6261365;23;20531;-86
2024/01/12 00:08:37;;;;;;;3.35;3.15;;;-2.30;99.90;;;;;;6268400;22;20183;-84
2024/01/12 00:11:08;;;;;;;3.13;2.70;;;-2.30;99.90;;;;;;6271092;22;20199;-85
2024/01/12 00:13:36;;;;;;;1.58;1.48;;;-2.30;99.90;;;;;;6270245;22;20199;-87
2024/01/12 00:16:06;;;;;;;6.65;3.92;;;-2.30;99.90;;;;;;6265659;22;20194;-80
2024/01/12 00:18:36;;;;;;;1.35;1.25;;;-2.30;99.90;;;;;;6272723;22;20175;-88
2024/01/12 00:21:08;;;;;;;1.55;1.45;;;-2.30;99.90;;;;;;6243304;23;20183;-86
2024/01/12 00:23:35;;;;;;;2.63;2.53;;;-2.30;99.90;;;;;;6236847;23;20179;-86
2024/01/12 00:26:03;;;;;;;1.55;1.52;;;-2.30;99.90;;;;;;6256405;22;20399;-82
2024/01/12 00:28:33;;;;;;;3.88;3.65;;;-2.30;99.90;;;;;;6256177;22;20199;-88
2024/01/12 00:31:10;;;;;;;5.03;3.40;;;-2.20;99.90;;;;;;6254018;23;20179;-91
2024/01/12 00:33:40;;;;;;;0.95;0.95;;;-2.20;99.90;;;;;;6227655;23;20238;-79
2024/01/12 00:36:07;;;;;;;2.53;2.33;;;-2.20;99.90;;;;;;6254218;22;20172;-90
2024/01/12 00:38:35;;;;;;;10.80;6.15;;;-2.20;99.90;;;;;;6252960;23;20180;-84
2024/01/12 00:41:03;;;;;;;6.82;2.33;;;-2.20;99.90;;;;;;6253452;23;20190;-87
2024/01/12 00:46:05;;;;;;;1.60;1.50;;;-2.20;99.90;;;;;;6316513;22;20174;-83
2024/01/12 00:48:38;;;;;;;3.13;2.92;;;-2.20;99.90;;;;;;6314445;22;20173;-79
2024/01/12 00:51:06;;;;;;;1.77;1.67;;;-2.20;99.90;;;;;;6314030;22;20240;-81
2024/01/12 00:53:35;;;;;;;11.23;2.13;;;-2.20;99.90;;;;;;6315292;22;20198;-89
2024/01/12 00:56:05;;;;;;;3.47;2.85;;;-2.20;99.90;;;;;;6315258;22;20182;-90
2024/01/12 00:58:33;;;;;;;5.78;5.20;;;-2.10;99.90;;;;;;6291347;22;20556;-81
2024/01/12 01:01:03;;;;;;;2.58;2.40;;;-2.10;99.90;;;;;;6290970;22;20249;-88
2024/01/12 01:03:33;;;;;;;1.83;1.73;;;-2.10;99.90;;;;;;6293571;22;20244;-86
2024/01/12 01:06:00;;;;;;;3.63;3.40;;;-2.10;99.90;;;;;;6316817;22;20188;-85
2024/01/12 01:08:29;;;;;;;2.45;1.55;;;-2.10;99.90;;;;;;6320363;22;20196;-89
2024/01/12 01:10:56;;;;;;;2.83;2.63;;;-2.10;99.90;;;;;;6287754;22;20381;-80
2024/01/12 01:13:23;;;;;;;5.03;4.50;;;-2.10;99.90;;;;;;6288395;22;20229;-79
2024/01/12 01:18:19;;;;;;;2.85;2.33;;;-2.20;99.90;;;;;;6251207;22;21615;-81
2024/01/12 01:23:24;;;;;;;2.28;2.08;;;-2.10;99.90;;;;;;6326547;22;20177;-90
2024/01/12 01:25:53;;;;;;;0.73;0.73;;;-2.10;99.90;;;;;;6294099;22;20178;-79
2024/01/12 01:28:20;;;;;;;1.08;1.08;;;-2.10;99.90;;;;;;6313509;22;20256;-85
2024/01/12 01:30:48;;;;;;;1.85;1.75;;;-2.10;99.90;;;;;;6313963;22;20197;-85
2024/01/12 01:33:15;;;;;;;4.93;4.15;;;-2.10;99.90;;;;;;6314823;22;20190;-87
2024/01/12 01:35:44;;;;;;;6.50;5.93;;;-2.10;99.90;;;;;;6288239;22;20182;-86
2024/01/12 01:38:12;;;;;;;3.63;3.33;;;-2.10;99.90;;;;;;6290170;22;20186;-88
2024/01/12 01:40:40;;;;;;;3.05;2.85;;;-2.00;99.90;;;;;;6290084;22;20182;-88
2024/01/12 01:43:11;;;;;;;3.83;3.58;;;-2.00;99.90;;;;;;6317038;22;20185;-83
2024/01/12 01:45:44;;;;;;;1.52;1.50;;;-2.00;99.90;;;;;;6312081;22;20246;-85
2024/01/12 01:48:14;;;;;;;2.47;2.38;;;-2.10;99.90;;;;;;6314918;22;20178;-84
2024/01/12 01:50:43;;;;;;;2.28;2.13;;;-2.10;99.90;;;;;;6314257;22;20753;-88
2024/01/12 01:53:12;;;;;;;1.33;1.33;;;-2.00;99.90;;;;;;6316034;22;20184;-82
2024/01/12 01:55:45;;;;;;;4.28;3.90;;;-2.00;99.90;;;;;;6313017;22;20190;-79
2024/01/12 01:58:13;;;;;;;0.73;0.73;;;-2.00;99.90;;;;;;6313515;22;20235;-91
2024/01/12 02:00:40;;;;;;;1.30;1.30;;;-2.00;99.90;;;;;;6291822;22;20638;-84
2024/01/12 02:03:09;;;;;;;4.05;3.75;;;-2.00;99.90;;;;;;6316019;22;20183;-84
2024/01/12 02:05:37;;;;;;;11.32;4.53;;;-2.00;99.90;;;;;;6314522;22;20181;-82
2024/01/12 02:08:04;;;;;;;2.95;2.75;;;-2.00;99.90;;;;;;6318014;22;20225;-80
2024/01/12 02:10:32;;;;;;;4.50;4.18;;;-2.00;99.90;;;;;;6320428;22;20181;-83
2024/01/12 02:12:59;;;;;;;14.45;5.15;;;-2.00;99.90;;;;;;6295603;22;20200;-81
2024/01/12 02:15:26;;;;;;;4.35;4.05;;;-2.00;99.90;;;;;;6324405;22;20198;-80
2024/01/12 02:17:57;;;;;;;1.75;1.65;;;-2.00;99.90;;;;;;6326529;22;20220;-85
2024/01/12 02:20:24;;;;;;;3.63;3.22;;;-2.00;99.90;;;;;;6295712;22;20466;-79
2024/01/12 02:22:52;;;;;;;6.22;2.10;;;-2.00;99.90;;;;;;6316704;22;20186;-90
2024/01/12 02:25:21;;;;;;;2.83;2.72;;;-1.80;99.90;;;;;;6291148;22;20168;-89
2024/01/12 02:27:49;;;;;;;1.33;1.25;;;-1.90;99.90;;;;;;6292584;22;20237;-83
2024/01/12 02:30:17;;;;;;;4.20;4.00;;;-1.90;99.90;;;;;;6288950;22;20178;-77
2024/01/12 02:32:47;;;;;;;13.02;7.47;;;-1.90;99.90;;;;;;6291820;22;20418;-86
2024/01/12 02:35:20;;;;;;;2.88;2.25;;;-1.90;99.90;;;;;;6323950;22;20213;-84
2024/01/12 02:37:49;;;;;;;2.80;1.85;;;-1.90;99.90;;;;;;6311456;22;20202;-87
2024/01/12 02:40:19;;;;;;;1.85;1.75;;;-1.90;99.90;;;;;;6294633;22;20185;-90
2024/01/12 02:42:48;;;;;;;3.90;3.70;;;-1.90;99.90;;;;;;6294654;22;20182;-85
2024/01/12 02:45:15;;;;;;;1.88;1.77;;;-1.90;99.90;;;;;;6317457;22;20181;-79
2024/01/12 02:47:43;;;;;;;4.03;3.17;;;-1.90;99.90;;;;;;6316360;22;20189;-79
2024/01/12 02:50:13;;;;;;;2.90;2.75;;;-1.90;99.90;;;;;;6291575;22;20188;-80
2024/01/12 02:52:41;;;;;;;1.30;1.20;;;-1.90;99.90;;;;;;6319163;22;20174;-84
2024/01/12 02:55:10;;;;;;;6.63;4.32;;;-1.90;99.90;;;;;;6313216;22;20194;-80
2024/01/12 02:57:38;;;;;;;3.42;3.22;;;-1.90;99.90;;;;;;6314752;22;20174;-85
2024/01/12 03:00:10;;;;;;;1.40;1.40;;;-1.90;99.90;;;;;;6315743;22;20182;-83
2024/01/12 03:02:43;;;;;;;4.38;3.97;;;-1.90;99.90;;;;;;6318579;22;20166;-87
2024/01/12 03:05:14;;;;;;;6.05;5.50;;;-1.70;99.90;;;;;;6286062;22;20221;-78
2024/01/12 03:07:40;;;;;;;8.00;4.55;;;-1.90;99.90;;;;;;6258264;22;20210;-89
2024/01/12 03:10:17;;;;;;;3.92;3.58;;;-1.90;99.90;;;;;;6264825;22;20404;-85
2024/01/12 03:12:44;;;;;;;4.07;3.80;;;-1.90;99.90;;;;;;6261147;22;20230;-80
2024/01/12 03:15:11;;;;;;;4.03;3.22;;;-1.80;99.90;;;;;;6285526;22;20206;-84
2024/01/12 03:17:40;;;;;;;1.98;1.88;;;-1.90;99.90;;;;;;6295481;22;20178;-80
2024/01/12 03:20:09;;;;;;;4.43;3.42;;;-1.90;99.90;;;;;;6304933;22;20190;-88
2024/01/12 03:22:36;;;;;;;2.35;2.25;;;-1.80;99.90;;;;;;6296220;22;20499;-87
2024/01/12 03:25:03;;;;;;;5.20;4.80;;;-1.80;99.90;;;;;;6292521;22;20183;-83
2024/01/12 03:27:35;;;;;;;4.07;3.72;;;-1.80;99.90;;;;;;6277439;22;20175;-81
2024/01/12 03:30:10;;;;;;;4.63;2.78;;;-1.90;99.90;;;;;;6266700;22;20171;-87
2024/01/12 03:32:39;;;;;;;7.80;5.72;;;-1.80;99.90;;;;;;6267637;22;20396;-85
2024/01/12 03:35:07;;;;;;;2.67;2.58;;;-1.80;99.90;;;;;;6301556;22;20225;-80
2024/01/12 03:37:34;;;;;;;4.30;4.05;;;-1.80;99.90;;;;;;6307602;22;20186;-87
2024/01/12 03:40:04;;;;;;;4.97;4.57;;;-1.80;99.90;;;;;;6300332;22;20162;-85
2024/01/12 03:42:32;;;;;;;2.58;2.45;;;-1.80;99.90;;;;;;6264622;22;20191;-88
2024/01/12 03:45:00;;;;;;;1.73;1.63;;;-1.80;99.90;;;;;;6298550;22;20196;-81
2024/01/12 03:47:28;;;;;;;2.47;2.33;;;-1.80;99.90;;;;;;6235740;22;20191;-87
2024/01/12 03:49:56;;;;;;;1.75;1.65;;;-1.70;99.90;;;;;;6239869;22;20176;-88
2024/01/12 03:52:25;;;;;;;5.20;4.78;;;-1.80;99.90;;;;;;6242388;22;20183;-87
2024/01/12 03:54:53;;;;;;;2.08;1.95;;;-1.80;99.90;;;;;;6236453;23;20227;-90
2024/01/12 03:57:28;;;;;;;10.10;4.68;;;-1.80;99.90;;;;;;6233639;23;20160;-89
2024/01/12 03:59:57;;;;;;;10.07;1.48;;;-1.80;99.90;;;;;;6232036;23;20211;-84
2024/01/12 04:02:24;;;;;;;3.17;3.03;;;-1.70;99.90;;;;;;6256663;23;20183;-91
2024/01/12 04:04:51;;;;;;;4.93;4.63;;;-1.80;99.90;;;;;;6238715;22;20163;-90
2024/01/12 04:07:19;;;;;;;2.45;2.33;;;-1.80;99.90;;;;;;6262684;22;20180;-89
2024/01/12 04:09:49;;;;;;;1.75;1.75;;;-1.70;99.90;;;;;;6209798;23;20196;-87
2024/01/12 04:12:22;;;;;;;2.42;2.25;;;-1.70;99.90;;;;;;6206888;23;20271;-84
2024/01/12 04:14:49;;;;;;;3.80;2.35;;;-1.70;99.90;;;;;;6261691;23;20203;-89
2024/01/12 04:17:31;;;;;;;3.35;3.20;;;-1.60;99.90;;;;;;6261307;23;20172;-86
2024/01/12 04:20:11;;;;;;;3.35;3.05;;;-1.70;99.90;;;;;;6232552;23;20403;-84
2024/01/12 04:22:42;;;;;;;2.33;2.22;;;-1.70;99.90;;;;;;6249160;23;20180;-80
2024/01/12 04:25:14;;;;;;;3.10;2.90;;;-1.70;99.90;;;;;;6262281;23;20163;-86
2024/01/12 04:27:47;;;;;;;4.85;4.55;;;-1.70;99.90;;;;;;6207623;23;20707;-80
2024/01/12 04:30:14;;;;;;;5.25;3.90;;;-1.70;99.90;;;;;;6254425;23;20167;-84
2024/01/12 04:33:02;;;;;;;6.65;6.00;;;-1.70;99.90;;;;;;6258965;23;20179;-84
2024/01/12 04:35:42;;;;;;;5.13;4.72;;;-1.70;99.90;;;;;;6230034;23;20245;-87
2024/01/12 04:38:19;;;;;;;2.33;2.22;;;-1.70;99.90;;;;;;6256899;23;20179;-86
2024/01/12 04:41:18;;;;;;;3.72;3.35;;;-1.70;99.90;;;;;;6238558;23;20194;-82
2024/01/12 04:43:46;;;;;;;2.55;2.28;;;-1.70;99.90;;;;;;6261321;23;20168;-89
2024/01/12 04:49:31;;;;;;;6.85;4.00;;;-1.70;99.90;;;;;;6314036;22;20194;-86
2024/01/12 04:52:52;;;;;;;4.00;3.75;;;-1.70;99.90;;;;;;6300700;22;20159;-91
2024/01/12 04:59:19;;;;;;;6.35;2.85;;;-1.70;99.90;;;;;;6277546;22;20277;-88
2024/01/12 05:01:49;;;;;;;6.40;4.00;;;-1.70;99.90;;;;;;6327748;22;20226;-83
2024/01/12 05:04:16;;;;;;;3.20;2.85;;;-1.60;99.90;;;;;;6290438;22;20170;-84
2024/01/12 05:06:45;;;;;;;28.17;4.18;;;-1.60;99.90;;;;;;6288902;22;20180;-84
2024/01/12 05:09:17;;;;;;;6.10;5.63;;;-1.60;99.90;;;;;;6314483;22;20174;-87
2024/01/12 05:11:52;;;;;;;2.90;1.98;;;-1.70;99.90;;;;;;6290432;22;20185;-86
2024/01/12 05:14:20;;;;;;;3.15;2.95;;;-1.60;99.90;;;;;;6289399;22;20205;-87
2024/01/12 05:16:50;;;;;;;55.55;5.07;;;-1.60;99.90;;;;;;6314070;22;20191;-80
2024/01/12 05:19:20;;;;;;;4.45;4.10;;;-1.60;99.90;;;;;;6314523;22;20174;-87
2024/01/12 05:21:48;;;;;;;6.28;3.25;;;-1.60;99.90;;;;;;6288138;22;20174;-83
2024/01/12 05:24:22;;;;;;;9.50;3.50;;;-1.60;99.90;;;;;;6316774;22;20189;-88
2024/01/12 05:26:50;;;;;;;6.25;5.78;;;-1.60;99.90;;;;;;6290370;22;20201;-83
2024/01/12 05:29:25;;;;;;;6.25;4.03;;;-1.60;99.90;;;;;;6317675;22;20246;-87
2024/01/12 05:31:53;;;;;;;5.47;3.83;;;-1.60;99.90;;;;;;6292664;22;20178;-84
2024/01/12 05:34:22;;;;;;;1.05;1.05;;;-1.70;99.90;;;;;;6319040;22;20205;-83
2024/01/12 05:36:50;;;;;;;1.02;1.02;;;-1.60;99.90;;;;;;6288368;22;20224;-88
2024/01/12 05:39:17;;;;;;;3.92;3.63;;;-1.60;99.90;;;;;;6288493;22;20198;-86
2024/01/12 05:41:44;;;;;;;5.60;5.07;;;-1.60;99.90;;;;;;6314782;22;20509;-84
2024/01/12 05:44:12;;;;;;;1.40;1.40;;;-1.60;99.90;;;;;;6287470;22;20170;-86
2024/01/12 05:46:41;;;;;;;3.95;3.75;;;-1.60;99.90;;;;;;6315367;22;20170;-81
2024/01/12 05:49:09;;;;;;;6.25;4.45;;;-1.60;99.90;;;;;;6315831;22;20162;-84
2024/01/12 05:51:36;;;;;;;10.90;3.78;;;-1.60;99.90;;;;;;6317160;22;20182;-82
2024/01/12 05:54:05;;;;;;;9.93;6.32;;;-1.60;99.90;;;;;;6316116;22;20175;-82
2024/01/12 05:56:32;;;;;;;7.07;6.28;;;-1.50;99.90;;;;;;6286065;22;20201;-82
2024/01/12 05:58:59;;;;;;;4.95;4.55;;;-1.50;99.90;;;;;;6314716;22;20192;-83
2024/01/12 06:01:27;;;;;;;6.05;3.75;;;-1.50;99.90;;;;;;6289070;22;20175;-85
2024/01/12 06:03:56;;;;;;;6.32;5.40;;;-1.50;99.90;;;;;;6290018;22;20182;-87
2024/01/12 06:06:24;;;;;;;6.07;4.50;;;-1.50;99.90;;;;;;6314292;22;20182;-85
2024/01/12 06:09:50;;;;;;;3.38;3.17;;;-1.40;99.90;;;;;;6329321;22;20165;-81
2024/01/12 06:12:21;;;;;;;2.90;2.78;;;-1.50;99.90;;;;;;6330633;22;20186;-83
2024/01/12 06:14:59;;;;;;;2.47;2.38;;;-1.50;99.90;;;;;;6269367;22;20243;-81
2024/01/12 06:17:27;;;;;;;10.95;6.07;;;-1.50;99.90;;;;;;6304507;22;20150;-89
2024/01/12 06:19:58;;;;;;;6.00;5.47;;;-1.50;99.90;;;;;;6336328;22;20167;-84
2024/01/12 06:22:25;;;;;;;4.75;3.40;;;-1.50;99.90;;;;;;6327623;22;20178;-86
2024/01/12 06:24:56;;;;;;;4.72;4.13;;;-1.50;99.90;;;;;;6316850;22;20185;-86
2024/01/12 06:27:26;;;;;;;5.18;4.97;;;-1.50;99.90;;;;;;6317829;22;20182;-85
2024/01/12 06:29:54;;;;;;;2.38;2.22;;;-1.50;99.90;;;;;;6316938;22;20166;-81
2024/01/12 06:32:22;;;;;;;3.35;3.15;;;-1.50;99.90;;;;;;6317250;22;20182;-83
2024/01/12 06:34:51;;;;;;;2.60;2.40;;;-1.50;99.90;;;;;;6305179;22;20205;-87
2024/01/12 06:37:21;;;;;;;3.80;3.58;;;-1.50;99.90;;;;;;6309949;22;20169;-87
2024/01/12 06:39:50;;;;;;;6.38;4.13;;;-1.50;99.90;;;;;;6300156;22;20212;-84
2024/01/12 06:42:17;;;;;;;2.25;1.63;;;-1.50;99.90;;;;;;6320924;22;20205;-85
2024/01/12 06:44:44;;;;;;;4.20;3.70;;;-1.40;99.90;;;;;;6326925;22;20220;-87
2024/01/12 06:47:14;;;;;;;4.20;2.65;;;-1.40;99.90;;;;;;6335233;22;20170;-85
2024/01/12 06:49:43;;;;;;;3.20;3.00;;;-1.40;99.90;;;;;;6331512;22;20185;-79
2024/01/12 06:52:11;;;;;;;2.13;2.03;;;-1.40;99.90;;;;;;6299382;22;20175;-83
2024/01/12 06:54:44;;;;;;;2.60;2.35;;;-1.30;99.90;;;;;;6292049;22;20249;-83
2024/01/12 06:57:12;;;;;;;3.38;3.17;;;-1.30;99.90;;;;;;6319006;22;20182;-83
2024/01/12 06:59:42;;;;;;;5.50;4.85;;;-1.40;99.90;;;;;;6316749;22;20190;-81
2024/01/12 07:02:10;;;;;;;11.32;3.65;;;-1.50;99.90;;;;;;6289987;22;20188;-82
2024/01/12 07:04:40;;;;;;;2.30;2.05;;;-1.30;99.90;;;;;;6289542;22;20206;-81
2024/01/12 07:07:09;;;;;;;2.17;1.98;;;-1.30;99.90;;;;;;6319505;22;20181;-84
2024/01/12 07:09:41;;;;;;;3.08;2.88;;;-1.30;99.90;;;;;;6289524;22;20193;-84
2024/01/12 07:12:10;;;;;;;3.05;1.35;;;-1.30;99.90;;;;;;6316285;22;20254;-83
2024/01/12 07:14:39;;;;;;;3.97;2.33;;;-1.30;99.90;;;;;;6289111;22;20204;-82
2024/01/12 07:17:07;;;;;;;2.00;1.90;;;-1.40;99.90;;;;;;6289547;22;20177;-81
2024/01/12 07:19:39;;;;;;;2.95;2.75;;;-1.30;99.90;;;;;;6274643;22;20344;-81
2024/01/12 07:22:10;;;;;;;2.88;1.95;;;-1.40;99.90;;;;;;6315101;22;20241;-85
2024/01/12 07:24:37;;;;;;;1.33;1.25;;;-1.30;99.90;;;;;;6315649;22;20163;-86
2024/01/12 07:27:06;;;;;;;2.22;2.13;;;-1.30;99.90;;;;;;6313363;22;20210;-82
2024/01/12 07:29:34;;;;;;;2.83;2.67;;;-1.30;99.90;;;;;;6314578;22;20363;-81
2024/01/12 07:32:02;;;;;;;2.72;1.67;;;-1.30;99.90;;;;;;6314609;22;20267;-83
2024/01/12 07:34:31;;;;;;;2.53;1.75;;;-1.30;99.90;;;;;;6309953;22;20248;-80
2024/01/12 07:36:58;;;;;;;1.98;1.30;;;-1.30;99.90;;;;;;6313350;22;20178;-84
2024/01/12 07:39:26;;;;;;;4.38;4.07;;;-1.30;99.90;;;;;;6314205;22;20177;-84
2024/01/12 07:41:56;;;;;;;1.60;1.50;;;-1.20;99.90;;;;;;6287689;22;20201;-85
2024/01/12 07:44:23;;;;;;;2.97;2.85;;;-1.30;99.90;;;;;;6287708;22;20182;-80
2024/01/12 07:46:51;;;;;;;2.25;2.15;;;-1.30;99.90;;;;;;6314323;22;20239;-86
2024/01/12 07:49:21;;;;;;;6.93;4.93;;;-1.20;99.90;;;;;;6313436;22;20484;-82
2024/01/12 07:51:50;;;;;;;1.35;1.35;;;-1.20;99.90;;;;;;6314417;22;20182;-84
2024/01/12 07:54:18;;;;;;;2.60;2.53;;;-1.10;99.90;;;;;;6289028;22;20536;-83
2024/01/12 07:56:47;;;;;;;3.35;3.15;;;-1.10;99.90;;;;;;6313443;22;20198;-84
2024/01/12 07:59:19;;;;;;;10.50;4.03;;;-1.10;99.90;;;;;;6315032;22;20249;-85
2024/01/12 08:01:51;;;;;;;3.95;3.25;;;-1.10;99.90;;;;;;6313159;22;20210;-81
2024/01/12 08:04:21;;;;;;;2.30;2.20;;;-1.20;99.90;;;;;;6313166;22;20162;-83
2024/01/12 08:06:52;;;;;;;3.28;2.97;;;-1.20;99.90;;;;;;6311236;22;20170;-84
2024/01/12 08:09:19;;;;;;;7.13;5.47;;;-1.00;99.90;;;;;;6313407;22;20182;-82
2024/01/12 08:11:46;;;;;;;3.35;3.15;;;-1.10;99.90;;;;;;6315510;22;20212;-86
2024/01/12 08:14:15;;;;;;;5.07;4.68;;;-1.00;99.90;;;;;;6313560;22;20186;-81
2024/01/12 08:16:42;;;;;;;3.42;3.22;;;-1.00;99.90;;;;;;6286848;22;20269;-83
2024/01/12 08:19:12;;;;;;;1.60;1.50;;;-1.00;99.90;;;;;;6314037;22;20178;-83
2024/01/12 08:21:41;;;;;;;8.68;4.47;;;-1.00;99.90;;;;;;6286001;22;20212;-85
2024/01/12 08:24:20;;;;;;;2.17;1.90;;;-1.00;99.90;;;;;;6312178;22;20245;-83
2024/01/12 08:26:49;;;;;;;3.15;2.97;;;-1.10;99.90;;;;;;6289231;22;20267;-79
2024/01/12 08:29:17;;;;;;;1.95;1.85;;;-1.10;99.90;;;;;;6285292;22;20209;-81
2024/01/12 08:31:51;;;;;;;10.60;4.60;;;-1.20;99.90;;;;;;6311586;22;20486;-88
2024/01/12 08:34:19;;;;;;;2.25;2.05;;;-1.20;99.90;;;;;;6286043;22;20368;-81
2024/01/12 08:36:53;;;;;;;5.30;4.88;;;-1.20;99.90;;;;;;6313278;22;20194;-83
2024/01/12 08:39:22;;;;;;;3.45;2.70;;;-1.10;99.90;;;;;;6285455;22;20201;-84
2024/01/12 08:41:49;;;;;;;2.97;2.78;;;-1.10;99.90;;;;;;6311466;22;20247;-83
2024/01/12 08:44:19;;;;;;;8.52;7.90;;;-1.20;99.90;;;;;;6312780;22;20194;-83
2024/01/12 08:46:48;;;;;;;4.13;2.88;;;-1.20;99.90;;;;;;6286128;22;20194;-82
2024/01/12 08:49:14;;;;;;;1.95;1.85;;;-1.20;99.90;;;;;;6315226;22;20170;-82
2024/01/12 08:51:42;;;;;;;2.70;2.60;;;-1.20;99.90;;;;;;6313390;22;20177;-83
2024/01/12 08:54:13;;;;;;;1.95;1.85;;;-1.10;99.90;;;;;;6314002;22;20590;-85
2024/01/12 08:56:41;;;;;;;5.93;4.20;;;-1.10;99.90;;;;;;6312149;22;20194;-83
2024/01/12 08:59:09;;;;;;;7.80;3.40;;;-1.10;99.90;;;;;;6285064;22;20216;-84
2024/01/12 09:01:39;;;;;;;1.48;1.40;;;-1.20;99.90;;;;;;6311607;22;20276;-83
2024/01/12 09:04:06;;;;;;;9.27;4.32;;;-1.20;99.90;;;;;;6285653;22;20184;-83
2024/01/12 09:06:37;;;;;;;3.97;3.67;;;-1.20;99.90;;;;;;6314121;22;20179;-84
2024/01/12 09:09:08;;;;;;;2.65;2.47;;;-1.20;99.90;;;;;;6322815;22;20157;-86
2024/01/12 09:11:35;;;;;;;5.03;4.63;;;-1.30;99.90;;;;;;6328378;22;20243;-85
2024/01/12 09:14:03;;;;;;;7.55;7.05;;;-1.20;99.90;;;;;;6315862;22;20197;-82
2024/01/12 09:16:35;;;;;;;3.95;3.55;;;-1.20;99.90;;;;;;6315343;22;20654;-83
2024/01/12 09:19:07;;;;;;;1.67;1.58;;;-1.30;99.90;;;;;;6322197;22;20182;-79
2024/01/12 09:21:40;;;;;;;4.35;3.95;;;-1.30;99.90;;;;;;6326628;22;20165;-82
2024/01/12 09:24:08;;;;;;;2.85;2.75;;;-1.30;99.90;;;;;;6331638;22;20174;-81
2024/01/12 09:26:36;;;;;;;6.28;3.90;;;-1.30;99.90;;;;;;6307430;22;20174;-83
2024/01/12 09:29:04;;;;;;;1.95;1.85;;;-1.30;99.90;;;;;;6307765;22;20205;-84
2024/01/12 09:31:32;;;;;;;2.65;2.55;;;-1.30;99.90;;;;;;6297717;22;20182;-86
2024/01/12 09:34:04;;;;;;;3.90;3.60;;;-1.30;99.90;;;;;;6327226;22;20185;-78
2024/01/12 09:36:32;;;;;;;2.35;1.88;;;-1.20;99.90;;;;;;6318848;22;20594;-85
2024/01/12 09:39:03;;;;;;;4.38;4.18;;;-1.30;99.90;;;;;;6317820;22;20178;-82
2024/01/12 09:42:04;;;;;;;2.13;2.00;;;-1.20;99.90;;;;;;6319043;22;20181;-82
2024/01/12 09:44:39;;;;;;;1.48;1.35;;;-1.20;99.90;;;;;;6313349;22;20178;-80
2024/01/12 09:47:17;;;;;;;1.92;1.83;;;-1.10;99.90;;;;;;6291248;22;20170;-81
2024/01/12 09:49:46;;;;;;;2.28;1.88;;;-1.20;99.90;;;;;;6292429;22;20170;-85
2024/01/12 09:52:13;;;;;;;3.45;2.67;;;-1.10;99.90;;;;;;6291361;22;20242;-83
2024/01/12 09:54:41;;;;;;;1.20;1.10;;;-1.10;99.90;;;;;;6290197;22;20185;-84
2024/01/12 09:57:14;;;;;;;4.65;4.35;;;-1.10;99.90;;;;;;6316461;22;20206;-83
2024/01/12 09:59:54;;;;;;;0.40;0.40;;;-1.00;99.90;;;;;;6316296;22;20674;-84
2024/01/12 10:02:21;;;;;;;2.35;2.25;;;-1.00;99.90;;;;;;6287618;22;20196;-84
2024/01/12 10:04:49;;;;;;;6.03;4.28;;;-1.00;99.90;;;;;;6313335;22;20699;-81
2024/01/12 10:07:17;;;;;;;1.23;1.23;;;-1.00;99.90;;;;;;6314646;22;20176;-84
2024/01/12 10:09:46;;;;;;;15.38;4.40;;;-1.00;99.90;;;;;;6313034;22;20228;-83
2024/01/12 10:12:14;;;;;;;0.85;0.85;;;-0.90;99.90;;;;;;6315205;22;20186;-83
2024/01/12 10:14:42;;;;;;;1.60;1.60;;;-0.70;99.90;;;;;;6313358;22;20596;-81
2024/01/12 10:17:11;;;;;;;2.40;2.20;;;-0.60;99.90;;;;;;6313786;22;20208;-82
2024/01/12 10:19:41;;;;;;;3.35;1.70;;;-0.70;99.90;;;;;;6311896;22;20417;-81
2024/01/12 10:22:14;;;;;;;3.80;3.22;;;-0.90;99.90;;;;;;6315036;22;20417;-79
2024/01/12 10:25:09;;;;;;;2.78;1.98;;;-0.90;99.90;;;;;;6315465;22;20308;-84
2024/01/12 10:27:37;;;;;;;2.38;2.28;;;-1.00;99.90;;;;;;6311084;22;20498;-84
2024/01/12 10:30:08;;;;;;;1.58;1.52;;;-0.80;99.90;;;;;;6288528;22;20178;-84
2024/01/12 10:32:36;;;;;;;2.25;2.13;;;-0.70;99.90;;;;;;6289522;22;20201;-84
2024/01/12 10:35:06;;;;;;;2.67;2.58;;;-0.70;99.90;;;;;;6314629;22;20182;-85
2024/01/12 10:37:36;;;;;;;11.45;3.22;;;-0.70;99.90;;;;;;6286606;22;20228;-84
2024/01/12 10:40:08;;;;;;;1.73;1.63;;;-0.80;99.90;;;;;;6314694;22;20170;-83
2024/01/12 10:42:38;;;;;;;1.50;1.50;;;-0.80;99.90;;;;;;6316713;22;20182;-81
2024/01/12 10:45:11;;;;;;;1.05;1.05;;;-0.70;99.90;;;;;;6318839;22;20162;-85
2024/01/12 10:47:44;;;;;;;2.53;2.33;;;-0.80;99.90;;;;;;6317784;22;20221;-81
2024/01/12 10:50:16;;;;;;;3.28;1.30;;;-0.70;99.90;;;;;;6289254;22;20733;-83
2024/01/12 10:52:57;;;;;;;1.23;1.23;;;-0.70;99.90;;;;;;6326294;22;20169;-84
2024/01/12 10:55:36;;;;;;;1.02;1.00;;;-0.60;99.90;;;;;;6313338;22;20181;-83
2024/01/12 10:58:05;;;;;;;3.55;3.20;;;-0.60;99.90;;;;;;6287500;22;20266;-84
2024/01/12 11:00:33;;;;;;;0.43;0.43;;;-0.60;99.90;;;;;;6313021;22;20223;-86
2024/01/12 11:03:03;;;;;;;2.53;2.42;;;-0.60;99.90;;;;;;6313708;22;20212;-84
2024/01/12 11:05:34;;;;;;;1.85;1.75;;;-0.60;99.90;;;;;;6287425;22;20159;-83
2024/01/12 11:08:06;;;;;;;12.05;4.25;;;-0.60;99.90;;;;;;6314768;22;20197;-84
2024/01/12 11:10:42;;;;;;;2.25;2.15;;;-0.60;99.90;;;;;;6319456;22;20158;-85
2024/01/12 11:13:13;;;;;;;1.42;1.33;;;-0.50;99.90;;;;;;6281982;22;20158;-86
2024/01/12 11:15:41;;;;;;;2.17;2.08;;;-0.50;99.90;;;;;;6309279;22;20209;-86
2024/01/12 11:18:10;;;;;;;9.32;4.75;;;-0.40;99.90;;;;;;6307530;22;20178;-83
2024/01/12 11:21:01;;;;;;;2.75;1.95;;;-0.50;99.90;;;;;;6323710;22;20198;-84
2024/01/12 11:23:38;;;;;;;1.75;1.65;;;-0.50;99.90;;;;;;6297495;22;20170;-83
2024/01/12 11:26:07;;;;;;;1.15;1.15;;;-0.30;99.90;;;;;;6302676;22;20166;-84
2024/01/12 11:28:38;;;;;;;3.85;3.10;;;-0.50;99.90;;;;;;6335148;22;20162;-85
2024/01/12 11:31:05;;;;;;;4.90;1.60;;;-0.70;99.90;;;;;;6335416;22;20162;-88
2024/01/12 11:33:43;;;;;;;0.40;0.40;;;-0.60;99.90;;;;;;6306055;22;20201;-86
2024/01/12 11:36:32;;;;;;;0.65;0.65;;;-0.60;99.90;;;;;;6318679;22;20202;-86
2024/01/12 11:39:03;;;;;;;1.10;1.10;;;-0.60;99.90;;;;;;6291047;22;20163;-83
2024/01/12 11:41:31;;;;;;;1.63;1.50;;;-0.50;99.90;;;;;;6314452;22;20340;-84
2024/01/12 11:44:00;;;;;;;4.95;1.95;;;-0.60;99.90;;;;;;6290140;22;20238;-86
2024/01/12 11:46:30;;;;;;;2.60;2.50;;;-0.70;99.90;;;;;;6320686;22;20178;-84
2024/01/12 11:49:04;;;;;;;0.93;0.93;;;-0.60;99.90;;;;;;6322494;22;20320;-86
2024/01/12 11:51:31;;;;;;;1.38;1.35;;;-0.70;99.90;;;;;;6322066;22;20184;-86
2024/01/12 11:53:58;;;;;;;4.22;2.55;;;-0.60;99.90;;;;;;6294958;22;20182;-88
2024/01/12 11:56:35;;;;;;;0.80;0.80;;;-0.50;99.90;;;;;;6290630;22;20249;-83
2024/01/12 11:59:17;;;;;;;2.17;1.98;;;-0.50;99.90;;;;;;6313951;22;20197;-86
2024/01/12 12:01:47;;;;;;;1.25;1.15;;;-0.60;99.90;;;;;;6315722;22;20205;-84
2024/01/12 12:04:18;;;;;;;4.00;3.30;;;-0.50;99.90;;;;;;6286801;22;20208;-84
2024/01/12 12:06:46;;;;;;;1.95;1.85;;;-0.50;99.90;;;;;;6287767;22;20194;-84
2024/01/12 12:09:16;;;;;;;1.60;1.50;;;-0.50;99.90;;;;;;6291516;22;20235;-87
2024/01/12 12:11:48;;;;;;;1.38;1.38;;;-0.50;99.90;;;;;;6314371;22;20691;-87
2024/01/12 12:14:15;;;;;;;2.00;1.90;;;-0.50;99.90;;;;;;6289407;22;20174;-87
2024/01/12 12:16:47;;;;;;;1.10;1.10;;;-0.60;99.90;;;;;;6287814;22;20233;-87
2024/01/12 12:19:14;;;;;;;0.40;0.40;;;-0.60;99.90;;;;;;6320783;22;20162;-87
2024/01/12 12:21:42;;;;;;;1.00;1.00;;;-0.70;99.90;;;;;;6334633;22;20170;-88
2024/01/12 12:24:11;;;;;;;1.80;1.70;;;-0.60;99.90;;;;;;6330900;22;20171;-85
2024/01/12 12:26:43;;;;;;;3.20;2.92;;;-0.70;99.90;;;;;;6299576;22;20181;-86
2024/01/12 12:29:10;;;;;;;4.90;2.90;;;-0.70;99.90;;;;;;6326037;22;20182;-87
2024/01/12 12:31:41;;;;;;;0.40;0.40;;;-0.70;99.90;;;;;;6298790;22;20193;-86
2024/01/12 12:34:10;;;;;;;2.22;1.63;;;-0.70;99.90;;;;;;6325141;22;20174;-86
2024/01/12 12:36:38;;;;;;;12.65;4.30;;;-0.80;99.90;;;;;;6326346;22;20190;-87
2024/01/12 12:39:09;;;;;;;1.73;1.63;;;-0.70;99.90;;;;;;6322879;22;20198;-86
2024/01/12 12:41:45;;;;;;;1.88;1.77;;;-0.70;99.90;;;;;;6321466;22;20158;-86
2024/01/12 12:44:13;;;;;;;1.73;1.58;;;-0.60;99.90;;;;;;6317141;22;20235;-87
2024/01/12 12:46:42;;;;;;;1.02;1.00;;;-0.60;99.90;;;;;;6291316;22;20205;-87
2024/01/12 12:49:12;;;;;;;6.10;2.83;;;-0.50;99.90;;;;;;6316168;22;20170;-87
2024/01/12 12:51:42;;;;;;;3.45;3.15;;;-0.60;99.90;;;;;;6292317;22;20196;-85
2024/01/12 12:54:12;;;;;;;2.55;2.45;;;-0.70;99.90;;;;;;6288945;22;20273;-85
2024/01/12 12:56:46;;;;;;;1.55;1.45;;;-0.80;99.90;;;;;;6289167;22;20367;-84
2024/01/12 12:59:13;;;;;;;2.53;2.38;;;-0.70;99.90;;;;;;6289519;22;20178;-85
2024/01/12 13:01:47;;;;;;;0.65;0.60;;;-0.80;99.90;;;;;;6315134;22;20167;-86
2024/01/12 13:04:15;;;;;;;2.78;1.10;;;-0.70;99.90;;;;;;6316251;22;20256;-85
2024/01/12 13:06:46;;;;;;;0.60;0.60;;;-0.80;99.90;;;;;;6317181;22;20250;-86
2024/01/12 13:09:16;;;;;;;3.25;2.90;;;-0.80;99.90;;;;;;6316826;22;20477;-87
2024/01/12 13:12:03;;;;;;;1.15;1.15;;;-0.80;99.90;;;;;;6298308;22;20189;-84
2024/01/12 13:14:34;;;;;;;0.95;0.95;;;-0.80;99.90;;;;;;6295644;22;20651;-85
2024/01/12 13:17:03;;;;;;;1.40;1.30;;;-0.80;99.90;;;;;;6324353;22;20182;-87